sensor_id;sensor_type;location;lat;lon;timestamp;P1;durP1;ratioP1;P2;durP2;ratioP2
51312;SDS011;37397;53.226;10.400;2022-12-07T00:01:12;20.70;;;13.23;;
51312;SDS011;37397;53.226;10.400;2022-12-07T00:03:41;21.10;;;13.55;;
51312;SDS011;37397;53.226;10.400;2022-12-07T00:06:10;21.83;;;14.63;;
51312;SDS011;37397;53.226;10.400;2022-12-07T00:08:39;21.15;;;13.07;;
51312;SDS011;37397;53.226;10.400;2022-12-07T00:11:06;19.35;;;13.15;;
51312;SDS011;37397;53.226;10.400;2022-12-07T00:13:35;18.92;;;13.50;;
51312;SDS011;37397;53.226;10.400;2022-12-07T00:16:03;20.05;;;13.50;;
51312;SDS011;37397;53.226;10.400;2022-12-07T00:18:40;20.33;;;13.32;;
51312;SDS011;37397;53.226;10.400;2022-12-07T00:21:11;20.35;;;12.73;;
51312;SDS011;37397;53.226;10.400;2022-12-07T00:23:40;19.50;;;13.25;;
51312;SDS011;37397;53.226;10.400;2022-12-07T00:26:11;18.70;;;12.63;;
51312;SDS011;37397;53.226;10.400;2022-12-07T00:28:40;20.20;;;12.65;;
51312;SDS011;37397;53.226;10.400;2022-12-07T00:31:07;20.80;;;12.80;;
51312;SDS011;37397;53.226;10.400;2022-12-07T00:33:36;20.98;;;13.18;;
51312;SDS011;37397;53.226;10.400;2022-12-07T00:36:03;17.60;;;12.10;;
51312;SDS011;37397;53.226;10.400;2022-12-07T00:38:33;19.02;;;12.98;;
51312;SDS011;37397;53.226;10.400;2022-12-07T00:41:05;18.80;;;12.68;;
51312;SDS011;37397;53.226;10.400;2022-12-07T00:43:33;20.13;;;12.60;;
51312;SDS011;37397;53.226;10.400;2022-12-07T00:46:00;20.23;;;13.00;;
51312;SDS011;37397;53.226;10.400;2022-12-07T00:48:26;23.02;;;12.80;;
51312;SDS011;37397;53.226;10.400;2022-12-07T00:50:53;20.63;;;12.55;;
51312;SDS011;37397;53.226;10.400;2022-12-07T00:53:19;20.42;;;13.27;;
51312;SDS011;37397;53.226;10.400;2022-12-07T00:55:46;21.08;;;13.10;;
51312;SDS011;37397;53.226;10.400;2022-12-07T00:58:13;18.67;;;12.30;;
51312;SDS011;37397;53.226;10.400;2022-12-07T01:00:40;18.33;;;11.77;;
51312;SDS011;37397;53.226;10.400;2022-12-07T01:03:09;19.20;;;12.30;;
51312;SDS011;37397;53.226;10.400;2022-12-07T01:05:38;21.58;;;12.45;;
51312;SDS011;37397;53.226;10.400;2022-12-07T01:08:05;20.63;;;12.82;;
51312;SDS011;37397;53.226;10.400;2022-12-07T01:10:32;21.10;;;12.40;;
51312;SDS011;37397;53.226;10.400;2022-12-07T01:12:59;20.15;;;12.40;;
51312;SDS011;37397;53.226;10.400;2022-12-07T01:15:25;19.85;;;12.55;;
51312;SDS011;37397;53.226;10.400;2022-12-07T01:17:52;21.30;;;12.95;;
51312;SDS011;37397;53.226;10.400;2022-12-07T01:20:20;17.33;;;11.88;;
51312;SDS011;37397;53.226;10.400;2022-12-07T01:22:47;19.35;;;12.68;;
51312;SDS011;37397;53.226;10.400;2022-12-07T01:25:13;20.65;;;12.23;;
51312;SDS011;37397;53.226;10.400;2022-12-07T01:27:40;22.33;;;12.45;;
51312;SDS011;37397;53.226;10.400;2022-12-07T01:30:06;18.88;;;12.20;;
51312;SDS011;37397;53.226;10.400;2022-12-07T01:32:33;18.13;;;11.60;;
51312;SDS011;37397;53.226;10.400;2022-12-07T01:35:00;20.65;;;12.25;;
51312;SDS011;37397;53.226;10.400;2022-12-07T01:37:26;18.90;;;11.52;;
51312;SDS011;37397;53.226;10.400;2022-12-07T01:39:53;20.50;;;12.02;;
51312;SDS011;37397;53.226;10.400;2022-12-07T01:42:19;17.95;;;11.63;;
51312;SDS011;37397;53.226;10.400;2022-12-07T01:47:51;19.88;;;11.77;;
51312;SDS011;37397;53.226;10.400;2022-12-07T01:50:22;21.52;;;11.95;;
51312;SDS011;37397;53.226;10.400;2022-12-07T01:52:51;20.45;;;12.20;;
51312;SDS011;37397;53.226;10.400;2022-12-07T01:55:21;22.13;;;12.65;;
51312;SDS011;37397;53.226;10.400;2022-12-07T01:57:50;21.15;;;12.93;;
51312;SDS011;37397;53.226;10.400;2022-12-07T02:00:20;21.23;;;11.77;;
51312;SDS011;37397;53.226;10.400;2022-12-07T02:05:32;19.80;;;11.95;;
51312;SDS011;37397;53.226;10.400;2022-12-07T02:08:00;17.73;;;11.88;;
51312;SDS011;37397;53.226;10.400;2022-12-07T02:10:29;18.75;;;11.27;;
51312;SDS011;37397;53.226;10.400;2022-12-07T02:13:08;19.10;;;11.60;;
51312;SDS011;37397;53.226;10.400;2022-12-07T02:21:13;19.95;;;11.45;;
51312;SDS011;37397;53.226;10.400;2022-12-07T02:23:52;19.45;;;10.88;;
51312;SDS011;37397;53.226;10.400;2022-12-07T02:27:14;20.33;;;11.32;;
51312;SDS011;37397;53.226;10.400;2022-12-07T02:29:45;18.23;;;12.00;;
51312;SDS011;37397;53.226;10.400;2022-12-07T02:32:19;15.90;;;10.50;;
51312;SDS011;37397;53.226;10.400;2022-12-07T02:37:43;19.23;;;11.60;;
51312;SDS011;37397;53.226;10.400;2022-12-07T02:40:14;17.52;;;9.70;;
51312;SDS011;37397;53.226;10.400;2022-12-07T02:42:53;18.67;;;10.50;;
51312;SDS011;37397;53.226;10.400;2022-12-07T02:45:27;19.00;;;10.85;;
51312;SDS011;37397;53.226;10.400;2022-12-07T02:47:57;17.00;;;10.35;;
51312;SDS011;37397;53.226;10.400;2022-12-07T02:50:26;18.27;;;10.38;;
51312;SDS011;37397;53.226;10.400;2022-12-07T02:52:52;19.52;;;10.30;;
51312;SDS011;37397;53.226;10.400;2022-12-07T02:55:20;19.38;;;10.60;;
51312;SDS011;37397;53.226;10.400;2022-12-07T03:00:40;18.83;;;9.50;;
51312;SDS011;37397;53.226;10.400;2022-12-07T03:03:18;14.75;;;9.50;;
51312;SDS011;37397;53.226;10.400;2022-12-07T03:14:19;14.95;;;8.77;;
51312;SDS011;37397;53.226;10.400;2022-12-07T03:17:00;17.67;;;9.30;;
51312;SDS011;37397;53.226;10.400;2022-12-07T03:19:34;14.98;;;8.55;;
51312;SDS011;37397;53.226;10.400;2022-12-07T03:22:03;16.17;;;8.73;;
51312;SDS011;37397;53.226;10.400;2022-12-07T03:24:35;13.43;;;7.10;;
51312;SDS011;37397;53.226;10.400;2022-12-07T03:27:09;14.02;;;7.75;;
51312;SDS011;37397;53.226;10.400;2022-12-07T03:29:44;13.65;;;7.25;;
51312;SDS011;37397;53.226;10.400;2022-12-07T03:32:18;15.73;;;7.55;;
51312;SDS011;37397;53.226;10.400;2022-12-07T03:35:02;14.05;;;7.13;;
51312;SDS011;37397;53.226;10.400;2022-12-07T03:40:13;18.05;;;6.95;;
51312;SDS011;37397;53.226;10.400;2022-12-07T03:42:54;12.50;;;6.75;;
51312;SDS011;37397;53.226;10.400;2022-12-07T03:45:23;12.43;;;6.40;;
51312;SDS011;37397;53.226;10.400;2022-12-07T03:48:02;14.27;;;6.70;;
51312;SDS011;37397;53.226;10.400;2022-12-07T03:53:05;14.38;;;6.43;;
51312;SDS011;37397;53.226;10.400;2022-12-07T03:55:38;14.40;;;6.30;;
51312;SDS011;37397;53.226;10.400;2022-12-07T03:58:09;16.02;;;6.22;;
51312;SDS011;37397;53.226;10.400;2022-12-07T04:00:40;11.30;;;5.72;;
51312;SDS011;37397;53.226;10.400;2022-12-07T04:03:08;12.93;;;6.28;;
51312;SDS011;37397;53.226;10.400;2022-12-07T04:05:36;13.65;;;5.97;;
51312;SDS011;37397;53.226;10.400;2022-12-07T04:08:04;11.88;;;5.78;;
51312;SDS011;37397;53.226;10.400;2022-12-07T04:10:31;13.63;;;6.43;;
51312;SDS011;37397;53.226;10.400;2022-12-07T04:12:57;10.30;;;5.80;;
51312;SDS011;37397;53.226;10.400;2022-12-07T04:15:24;10.30;;;5.50;;
51312;SDS011;37397;53.226;10.400;2022-12-07T04:17:50;11.77;;;6.03;;
51312;SDS011;37397;53.226;10.400;2022-12-07T04:20:17;14.50;;;5.78;;
51312;SDS011;37397;53.226;10.400;2022-12-07T04:22:43;10.55;;;5.60;;
51312;SDS011;37397;53.226;10.400;2022-12-07T04:25:10;11.77;;;5.85;;
51312;SDS011;37397;53.226;10.400;2022-12-07T04:27:36;9.63;;;5.30;;
51312;SDS011;37397;53.226;10.400;2022-12-07T04:30:03;11.13;;;5.40;;
51312;SDS011;37397;53.226;10.400;2022-12-07T04:32:30;13.27;;;6.00;;
51312;SDS011;37397;53.226;10.400;2022-12-07T04:34:57;12.02;;;5.20;;
51312;SDS011;37397;53.226;10.400;2022-12-07T04:37:23;13.32;;;6.25;;
51312;SDS011;37397;53.226;10.400;2022-12-07T04:39:50;11.23;;;5.35;;
51312;SDS011;37397;53.226;10.400;2022-12-07T04:42:16;10.15;;;5.10;;
51312;SDS011;37397;53.226;10.400;2022-12-07T04:44:43;12.05;;;5.10;;
51312;SDS011;37397;53.226;10.400;2022-12-07T04:47:10;13.70;;;5.88;;
51312;SDS011;37397;53.226;10.400;2022-12-07T04:49:37;11.52;;;5.68;;
51312;SDS011;37397;53.226;10.400;2022-12-07T04:52:03;10.13;;;5.03;;
51312;SDS011;37397;53.226;10.400;2022-12-07T04:54:30;13.55;;;5.68;;
51312;SDS011;37397;53.226;10.400;2022-12-07T04:56:56;9.50;;;4.45;;
51312;SDS011;37397;53.226;10.400;2022-12-07T04:59:23;11.98;;;4.70;;
51312;SDS011;37397;53.226;10.400;2022-12-07T05:01:49;10.45;;;5.30;;
51312;SDS011;37397;53.226;10.400;2022-12-07T05:04:16;12.98;;;4.38;;
51312;SDS011;37397;53.226;10.400;2022-12-07T05:06:44;8.80;;;4.40;;
51312;SDS011;37397;53.226;10.400;2022-12-07T05:09:11;10.38;;;4.60;;
51312;SDS011;37397;53.226;10.400;2022-12-07T05:11:37;9.05;;;4.60;;
51312;SDS011;37397;53.226;10.400;2022-12-07T05:14:05;9.90;;;4.60;;
51312;SDS011;37397;53.226;10.400;2022-12-07T05:16:43;8.73;;;4.15;;
51312;SDS011;37397;53.226;10.400;2022-12-07T05:19:11;9.50;;;3.95;;
51312;SDS011;37397;53.226;10.400;2022-12-07T05:21:38;12.40;;;4.78;;
51312;SDS011;37397;53.226;10.400;2022-12-07T05:24:05;11.00;;;4.45;;
51312;SDS011;37397;53.226;10.400;2022-12-07T05:26:35;10.98;;;4.85;;
51312;SDS011;37397;53.226;10.400;2022-12-07T05:29:02;9.38;;;4.22;;
51312;SDS011;37397;53.226;10.400;2022-12-07T05:31:29;9.38;;;4.38;;
51312;SDS011;37397;53.226;10.400;2022-12-07T05:33:56;11.50;;;4.10;;
51312;SDS011;37397;53.226;10.400;2022-12-07T05:36:22;7.32;;;3.70;;
51312;SDS011;37397;53.226;10.400;2022-12-07T05:38:49;8.27;;;4.32;;
51312;SDS011;37397;53.226;10.400;2022-12-07T05:41:17;9.48;;;3.70;;
51312;SDS011;37397;53.226;10.400;2022-12-07T05:44:20;9.00;;;3.60;;
51312;SDS011;37397;53.226;10.400;2022-12-07T05:46:46;8.10;;;3.35;;
51312;SDS011;37397;53.226;10.400;2022-12-07T05:49:12;10.60;;;3.90;;
51312;SDS011;37397;53.226;10.400;2022-12-07T05:51:39;8.23;;;3.80;;
51312;SDS011;37397;53.226;10.400;2022-12-07T05:54:05;7.90;;;3.58;;
51312;SDS011;37397;53.226;10.400;2022-12-07T05:56:32;9.93;;;4.43;;
51312;SDS011;37397;53.226;10.400;2022-12-07T05:58:58;7.15;;;3.88;;
51312;SDS011;37397;53.226;10.400;2022-12-07T06:01:43;7.38;;;3.22;;
51312;SDS011;37397;53.226;10.400;2022-12-07T06:04:10;11.43;;;4.32;;
51312;SDS011;37397;53.226;10.400;2022-12-07T06:06:36;8.95;;;3.92;;
51312;SDS011;37397;53.226;10.400;2022-12-07T06:09:03;8.52;;;3.50;;
51312;SDS011;37397;53.226;10.400;2022-12-07T06:11:29;9.80;;;3.85;;
51312;SDS011;37397;53.226;10.400;2022-12-07T06:14:15;11.95;;;4.13;;
51312;SDS011;37397;53.226;10.400;2022-12-07T06:16:41;9.10;;;3.55;;
51312;SDS011;37397;53.226;10.400;2022-12-07T06:19:08;11.15;;;3.95;;
51312;SDS011;37397;53.226;10.400;2022-12-07T06:21:35;9.32;;;4.28;;
51312;SDS011;37397;53.226;10.400;2022-12-07T06:24:01;9.48;;;4.30;;
51312;SDS011;37397;53.226;10.400;2022-12-07T06:26:28;6.78;;;3.58;;
51312;SDS011;37397;53.226;10.400;2022-12-07T06:28:54;8.55;;;3.88;;
51312;SDS011;37397;53.226;10.400;2022-12-07T06:31:21;8.48;;;3.72;;
51312;SDS011;37397;53.226;10.400;2022-12-07T06:33:47;7.25;;;3.70;;
51312;SDS011;37397;53.226;10.400;2022-12-07T06:36:14;8.82;;;3.47;;
51312;SDS011;37397;53.226;10.400;2022-12-07T06:38:40;11.95;;;4.15;;
51312;SDS011;37397;53.226;10.400;2022-12-07T06:41:07;10.45;;;4.20;;
51312;SDS011;37397;53.226;10.400;2022-12-07T06:43:33;7.07;;;3.40;;
51312;SDS011;37397;53.226;10.400;2022-12-07T06:46:00;7.35;;;3.45;;
51312;SDS011;37397;53.226;10.400;2022-12-07T06:48:26;8.25;;;3.72;;
51312;SDS011;37397;53.226;10.400;2022-12-07T06:50:53;7.80;;;3.83;;
51312;SDS011;37397;53.226;10.400;2022-12-07T06:53:21;8.45;;;3.55;;
51312;SDS011;37397;53.226;10.400;2022-12-07T06:55:48;7.53;;;4.25;;
51312;SDS011;37397;53.226;10.400;2022-12-07T06:58:15;6.30;;;3.28;;
51312;SDS011;37397;53.226;10.400;2022-12-07T07:00:41;6.78;;;3.42;;
51312;SDS011;37397;53.226;10.400;2022-12-07T07:03:08;8.32;;;3.75;;
51312;SDS011;37397;53.226;10.400;2022-12-07T07:05:35;7.80;;;3.83;;
51312;SDS011;37397;53.226;10.400;2022-12-07T07:08:02;6.95;;;3.70;;
51312;SDS011;37397;53.226;10.400;2022-12-07T07:10:49;9.93;;;3.85;;
51312;SDS011;37397;53.226;10.400;2022-12-07T07:13:16;8.45;;;4.00;;
51312;SDS011;37397;53.226;10.400;2022-12-07T07:15:42;9.77;;;3.47;;
51312;SDS011;37397;53.226;10.400;2022-12-07T07:18:09;7.82;;;3.67;;
51312;SDS011;37397;53.226;10.400;2022-12-07T07:20:35;7.53;;;3.50;;
51312;SDS011;37397;53.226;10.400;2022-12-07T07:23:03;6.97;;;3.40;;
51312;SDS011;37397;53.226;10.400;2022-12-07T07:25:29;9.35;;;3.45;;
51312;SDS011;37397;53.226;10.400;2022-12-07T07:27:56;8.30;;;3.45;;
51312;SDS011;37397;53.226;10.400;2022-12-07T07:30:22;6.00;;;2.78;;
51312;SDS011;37397;53.226;10.400;2022-12-07T07:32:49;8.07;;;3.58;;
51312;SDS011;37397;53.226;10.400;2022-12-07T07:35:16;5.15;;;2.90;;
51312;SDS011;37397;53.226;10.400;2022-12-07T07:37:43;7.63;;;3.22;;
51312;SDS011;37397;53.226;10.400;2022-12-07T07:40:09;7.47;;;2.90;;
51312;SDS011;37397;53.226;10.400;2022-12-07T07:42:36;10.95;;;4.05;;
51312;SDS011;37397;53.226;10.400;2022-12-07T07:45:03;8.05;;;3.10;;
51312;SDS011;37397;53.226;10.400;2022-12-07T07:47:30;7.07;;;3.30;;
51312;SDS011;37397;53.226;10.400;2022-12-07T07:49:57;8.13;;;3.63;;
51312;SDS011;37397;53.226;10.400;2022-12-07T07:52:24;8.25;;;3.78;;
51312;SDS011;37397;53.226;10.400;2022-12-07T07:54:50;7.00;;;3.80;;
51312;SDS011;37397;53.226;10.400;2022-12-07T07:57:17;7.32;;;3.78;;
51312;SDS011;37397;53.226;10.400;2022-12-07T07:59:43;9.02;;;3.50;;
51312;SDS011;37397;53.226;10.400;2022-12-07T08:02:14;8.20;;;3.35;;
51312;SDS011;37397;53.226;10.400;2022-12-07T08:04:42;8.23;;;3.50;;
51312;SDS011;37397;53.226;10.400;2022-12-07T08:07:10;7.00;;;3.53;;
51312;SDS011;37397;53.226;10.400;2022-12-07T08:09:37;6.32;;;3.25;;
51312;SDS011;37397;53.226;10.400;2022-12-07T08:12:04;8.05;;;3.40;;
51312;SDS011;37397;53.226;10.400;2022-12-07T08:14:31;8.63;;;3.55;;
51312;SDS011;37397;53.226;10.400;2022-12-07T08:16:58;6.85;;;3.15;;
51312;SDS011;37397;53.226;10.400;2022-12-07T08:19:24;5.80;;;2.95;;
51312;SDS011;37397;53.226;10.400;2022-12-07T08:21:51;8.57;;;3.40;;
51312;SDS011;37397;53.226;10.400;2022-12-07T08:24:18;6.80;;;3.00;;
51312;SDS011;37397;53.226;10.400;2022-12-07T08:26:44;7.97;;;3.08;;
51312;SDS011;37397;53.226;10.400;2022-12-07T08:29:11;6.10;;;2.78;;
51312;SDS011;37397;53.226;10.400;2022-12-07T08:31:37;8.52;;;3.13;;
51312;SDS011;37397;53.226;10.400;2022-12-07T08:34:04;6.15;;;3.08;;
51312;SDS011;37397;53.226;10.400;2022-12-07T08:36:30;8.13;;;3.20;;
51312;SDS011;37397;53.226;10.400;2022-12-07T08:38:57;6.60;;;3.17;;
51312;SDS011;37397;53.226;10.400;2022-12-07T08:41:43;8.52;;;3.35;;
51312;SDS011;37397;53.226;10.400;2022-12-07T08:44:09;5.05;;;3.03;;
51312;SDS011;37397;53.226;10.400;2022-12-07T08:46:40;6.90;;;2.95;;
51312;SDS011;37397;53.226;10.400;2022-12-07T08:49:13;8.60;;;3.00;;
51312;SDS011;37397;53.226;10.400;2022-12-07T08:51:44;6.45;;;3.05;;
51312;SDS011;37397;53.226;10.400;2022-12-07T08:54:12;9.30;;;2.88;;
51312;SDS011;37397;53.226;10.400;2022-12-07T08:56:42;8.15;;;3.08;;
51312;SDS011;37397;53.226;10.400;2022-12-07T08:59:12;5.20;;;2.85;;
51312;SDS011;37397;53.226;10.400;2022-12-07T09:01:40;7.32;;;2.90;;
51312;SDS011;37397;53.226;10.400;2022-12-07T09:04:07;6.80;;;3.00;;
51312;SDS011;37397;53.226;10.400;2022-12-07T09:06:33;5.63;;;2.78;;
51312;SDS011;37397;53.226;10.400;2022-12-07T09:09:01;7.57;;;2.80;;
51312;SDS011;37397;53.226;10.400;2022-12-07T09:11:27;8.00;;;3.33;;
51312;SDS011;37397;53.226;10.400;2022-12-07T09:13:55;12.13;;;3.40;;
51312;SDS011;37397;53.226;10.400;2022-12-07T09:16:22;4.25;;;2.80;;
51312;SDS011;37397;53.226;10.400;2022-12-07T09:18:48;6.60;;;2.90;;
51312;SDS011;37397;53.226;10.400;2022-12-07T09:21:15;7.03;;;3.03;;
51312;SDS011;37397;53.226;10.400;2022-12-07T09:23:41;9.63;;;2.90;;
51312;SDS011;37397;53.226;10.400;2022-12-07T09:26:08;10.00;;;3.00;;
51312;SDS011;37397;53.226;10.400;2022-12-07T09:28:36;6.35;;;3.00;;
51312;SDS011;37397;53.226;10.400;2022-12-07T09:31:12;6.72;;;2.60;;
51312;SDS011;37397;53.226;10.400;2022-12-07T09:33:56;7.68;;;2.80;;
51312;SDS011;37397;53.226;10.400;2022-12-07T09:36:25;4.35;;;2.58;;
51312;SDS011;37397;53.226;10.400;2022-12-07T09:38:52;7.97;;;3.03;;
51312;SDS011;37397;53.226;10.400;2022-12-07T09:41:19;4.88;;;2.40;;
51312;SDS011;37397;53.226;10.400;2022-12-07T09:43:47;7.68;;;2.50;;
51312;SDS011;37397;53.226;10.400;2022-12-07T09:46:14;7.80;;;3.00;;
51312;SDS011;37397;53.226;10.400;2022-12-07T09:48:45;7.65;;;2.78;;
51312;SDS011;37397;53.226;10.400;2022-12-07T09:51:14;7.30;;;2.67;;
51312;SDS011;37397;53.226;10.400;2022-12-07T09:53:50;7.43;;;2.83;;
51312;SDS011;37397;53.226;10.400;2022-12-07T09:56:18;6.25;;;2.40;;
51312;SDS011;37397;53.226;10.400;2022-12-07T09:58:46;9.57;;;2.50;;
51312;SDS011;37397;53.226;10.400;2022-12-07T10:01:13;7.28;;;2.88;;
51312;SDS011;37397;53.226;10.400;2022-12-07T10:03:45;6.95;;;3.00;;
51312;SDS011;37397;53.226;10.400;2022-12-07T10:06:16;8.50;;;2.83;;
51312;SDS011;37397;53.226;10.400;2022-12-07T10:08:43;9.05;;;3.20;;
51312;SDS011;37397;53.226;10.400;2022-12-07T10:11:10;6.22;;;2.50;;
51312;SDS011;37397;53.226;10.400;2022-12-07T10:13:38;8.00;;;2.60;;
51312;SDS011;37397;53.226;10.400;2022-12-07T10:16:07;8.20;;;2.60;;
51312;SDS011;37397;53.226;10.400;2022-12-07T10:18:54;6.00;;;2.55;;
51312;SDS011;37397;53.226;10.400;2022-12-07T10:21:25;9.30;;;3.42;;
51312;SDS011;37397;53.226;10.400;2022-12-07T10:24:00;7.75;;;2.97;;
51312;SDS011;37397;53.226;10.400;2022-12-07T10:26:29;10.98;;;2.90;;
51312;SDS011;37397;53.226;10.400;2022-12-07T10:29:40;6.55;;;2.88;;
51312;SDS011;37397;53.226;10.400;2022-12-07T10:31:56;8.23;;;2.72;;
51312;SDS011;37397;53.226;10.400;2022-12-07T10:34:26;6.70;;;2.60;;
51312;SDS011;37397;53.226;10.400;2022-12-07T10:37:29;8.55;;;3.13;;
51312;SDS011;37397;53.226;10.400;2022-12-07T10:39:53;13.10;;;3.10;;
51312;SDS011;37397;53.226;10.400;2022-12-07T10:42:28;10.50;;;2.78;;
51312;SDS011;37397;53.226;10.400;2022-12-07T10:47:49;6.35;;;2.30;;
51312;SDS011;37397;53.226;10.400;2022-12-07T10:58:37;6.35;;;2.08;;
51312;SDS011;37397;53.226;10.400;2022-12-07T11:15:34;3.53;;;1.50;;
51312;SDS011;37397;53.226;10.400;2022-12-07T11:23:56;4.35;;;1.58;;
51312;SDS011;37397;53.226;10.400;2022-12-07T11:26:42;4.63;;;1.60;;
51312;SDS011;37397;53.226;10.400;2022-12-07T11:29:23;3.03;;;1.35;;
51312;SDS011;37397;53.226;10.400;2022-12-07T11:41:08;3.03;;;1.60;;
51312;SDS011;37397;53.226;10.400;2022-12-07T11:46:20;3.95;;;1.55;;
51312;SDS011;37397;53.226;10.400;2022-12-07T11:49:03;5.32;;;1.88;;
51312;SDS011;37397;53.226;10.400;2022-12-07T11:51:38;3.85;;;1.60;;
51312;SDS011;37397;53.226;10.400;2022-12-07T11:54:17;2.55;;;1.80;;
51312;SDS011;37397;53.226;10.400;2022-12-07T11:56:50;5.43;;;1.52;;
51312;SDS011;37397;53.226;10.400;2022-12-07T11:59:22;5.03;;;1.77;;
51312;SDS011;37397;53.226;10.400;2022-12-07T12:07:05;3.40;;;1.70;;
51312;SDS011;37397;53.226;10.400;2022-12-07T12:09:54;5.95;;;1.90;;
51312;SDS011;37397;53.226;10.400;2022-12-07T12:18:21;5.85;;;2.00;;
51312;SDS011;37397;53.226;10.400;2022-12-07T12:20:57;6.93;;;2.20;;
51312;SDS011;37397;53.226;10.400;2022-12-07T12:23:53;6.07;;;2.27;;
51312;SDS011;37397;53.226;10.400;2022-12-07T12:26:26;7.03;;;2.20;;
51312;SDS011;37397;53.226;10.400;2022-12-07T12:28:56;9.68;;;2.28;;
51312;SDS011;37397;53.226;10.400;2022-12-07T12:33:59;6.70;;;2.10;;
51312;SDS011;37397;53.226;10.400;2022-12-07T12:36:43;10.40;;;2.25;;
51312;SDS011;37397;53.226;10.400;2022-12-07T12:51:46;9.65;;;2.40;;
51312;SDS011;37397;53.226;10.400;2022-12-07T12:59:31;8.27;;;2.30;;
51312;SDS011;37397;53.226;10.400;2022-12-07T13:04:52;11.50;;;2.63;;
51312;SDS011;37397;53.226;10.400;2022-12-07T13:13:03;8.00;;;2.42;;
51312;SDS011;37397;53.226;10.400;2022-12-07T13:21:39;16.52;;;3.40;;
51312;SDS011;37397;53.226;10.400;2022-12-07T13:23:54;13.27;;;2.92;;
51312;SDS011;37397;53.226;10.400;2022-12-07T13:31:44;10.00;;;2.67;;
51312;SDS011;37397;53.226;10.400;2022-12-07T13:37:00;11.38;;;2.58;;
51312;SDS011;37397;53.226;10.400;2022-12-07T13:39:33;8.70;;;2.05;;
51312;SDS011;37397;53.226;10.400;2022-12-07T13:42:15;12.65;;;2.42;;
51312;SDS011;37397;53.226;10.400;2022-12-07T13:44:52;10.68;;;2.50;;
51312;SDS011;37397;53.226;10.400;2022-12-07T13:47:28;6.03;;;2.00;;
51312;SDS011;37397;53.226;10.400;2022-12-07T13:50:20;9.23;;;2.08;;
51312;SDS011;37397;53.226;10.400;2022-12-07T13:52:49;7.82;;;2.47;;
51312;SDS011;37397;53.226;10.400;2022-12-07T13:55:16;9.63;;;2.08;;
51312;SDS011;37397;53.226;10.400;2022-12-07T13:57:44;9.65;;;2.33;;
51312;SDS011;37397;53.226;10.400;2022-12-07T14:00:15;6.22;;;1.80;;
51312;SDS011;37397;53.226;10.400;2022-12-07T14:03:03;5.30;;;2.10;;
51312;SDS011;37397;53.226;10.400;2022-12-07T14:06:02;8.93;;;1.90;;
51312;SDS011;37397;53.226;10.400;2022-12-07T14:09:05;11.68;;;2.30;;
51312;SDS011;37397;53.226;10.400;2022-12-07T14:11:33;8.52;;;2.13;;
51312;SDS011;37397;53.226;10.400;2022-12-07T14:14:00;10.38;;;2.45;;
51312;SDS011;37397;53.226;10.400;2022-12-07T14:16:32;7.15;;;2.00;;
51312;SDS011;37397;53.226;10.400;2022-12-07T14:19:02;8.27;;;1.95;;
51312;SDS011;37397;53.226;10.400;2022-12-07T14:21:32;8.15;;;2.22;;
51312;SDS011;37397;53.226;10.400;2022-12-07T14:24:14;6.10;;;2.13;;
51312;SDS011;37397;53.226;10.400;2022-12-07T14:26:41;10.40;;;2.45;;
51312;SDS011;37397;53.226;10.400;2022-12-07T14:29:21;8.75;;;2.28;;
51312;SDS011;37397;53.226;10.400;2022-12-07T14:31:56;6.68;;;2.13;;
51312;SDS011;37397;53.226;10.400;2022-12-07T14:34:52;7.30;;;2.10;;
51312;SDS011;37397;53.226;10.400;2022-12-07T14:37:20;9.77;;;2.53;;
51312;SDS011;37397;53.226;10.400;2022-12-07T14:39:47;6.47;;;2.03;;
51312;SDS011;37397;53.226;10.400;2022-12-07T14:42:13;8.60;;;2.33;;
51312;SDS011;37397;53.226;10.400;2022-12-07T14:44:40;11.88;;;2.47;;
51312;SDS011;37397;53.226;10.400;2022-12-07T14:47:09;8.65;;;2.88;;
51312;SDS011;37397;53.226;10.400;2022-12-07T14:49:57;10.95;;;2.38;;
51312;SDS011;37397;53.226;10.400;2022-12-07T14:52:30;7.25;;;2.20;;
51312;SDS011;37397;53.226;10.400;2022-12-07T14:55:29;9.70;;;2.38;;
51312;SDS011;37397;53.226;10.400;2022-12-07T14:57:57;7.55;;;2.05;;
51312;SDS011;37397;53.226;10.400;2022-12-07T15:00:25;5.03;;;1.90;;
51312;SDS011;37397;53.226;10.400;2022-12-07T15:02:53;11.35;;;2.92;;
51312;SDS011;37397;53.226;10.400;2022-12-07T15:05:19;9.77;;;2.10;;
51312;SDS011;37397;53.226;10.400;2022-12-07T15:07:47;7.68;;;1.95;;
51312;SDS011;37397;53.226;10.400;2022-12-07T15:10:16;9.95;;;2.42;;
51312;SDS011;37397;53.226;10.400;2022-12-07T15:12:50;6.30;;;1.67;;
51312;SDS011;37397;53.226;10.400;2022-12-07T15:15:17;8.38;;;2.42;;
51312;SDS011;37397;53.226;10.400;2022-12-07T15:17:43;7.30;;;2.70;;
51312;SDS011;37397;53.226;10.400;2022-12-07T15:20:13;9.18;;;2.63;;
51312;SDS011;37397;53.226;10.400;2022-12-07T15:22:42;10.85;;;3.17;;
51312;SDS011;37397;53.226;10.400;2022-12-07T15:25:12;13.00;;;3.08;;
51312;SDS011;37397;53.226;10.400;2022-12-07T15:27:39;7.38;;;2.97;;
51312;SDS011;37397;53.226;10.400;2022-12-07T15:30:06;10.02;;;3.42;;
51312;SDS011;37397;53.226;10.400;2022-12-07T15:32:33;8.52;;;2.65;;
51312;SDS011;37397;53.226;10.400;2022-12-07T15:35:00;9.23;;;2.50;;
51312;SDS011;37397;53.226;10.400;2022-12-07T15:37:27;8.05;;;2.70;;
51312;SDS011;37397;53.226;10.400;2022-12-07T15:39:54;7.10;;;2.58;;
51312;SDS011;37397;53.226;10.400;2022-12-07T15:42:21;8.27;;;2.78;;
51312;SDS011;37397;53.226;10.400;2022-12-07T15:44:47;11.05;;;3.00;;
51312;SDS011;37397;53.226;10.400;2022-12-07T15:47:34;8.50;;;2.83;;
51312;SDS011;37397;53.226;10.400;2022-12-07T15:50:22;9.20;;;2.75;;
51312;SDS011;37397;53.226;10.400;2022-12-07T15:52:49;7.97;;;2.67;;
51312;SDS011;37397;53.226;10.400;2022-12-07T15:55:16;8.45;;;2.65;;
51312;SDS011;37397;53.226;10.400;2022-12-07T15:57:42;8.70;;;3.08;;
51312;SDS011;37397;53.226;10.400;2022-12-07T16:00:09;7.85;;;2.60;;
51312;SDS011;37397;53.226;10.400;2022-12-07T16:02:36;7.50;;;3.00;;
51312;SDS011;37397;53.226;10.400;2022-12-07T16:05:05;11.13;;;3.40;;
51312;SDS011;37397;53.226;10.400;2022-12-07T16:07:32;8.20;;;3.50;;
51312;SDS011;37397;53.226;10.400;2022-12-07T16:09:59;10.80;;;4.28;;
51312;SDS011;37397;53.226;10.400;2022-12-07T16:12:25;11.88;;;3.67;;
51312;SDS011;37397;53.226;10.400;2022-12-07T16:14:52;13.13;;;4.07;;
51312;SDS011;37397;53.226;10.400;2022-12-07T16:17:18;8.55;;;4.30;;
51312;SDS011;37397;53.226;10.400;2022-12-07T16:19:45;9.90;;;3.72;;
51312;SDS011;37397;53.226;10.400;2022-12-07T16:22:14;11.45;;;4.03;;
51312;SDS011;37397;53.226;10.400;2022-12-07T16:24:41;8.88;;;3.72;;
51312;SDS011;37397;53.226;10.400;2022-12-07T16:27:08;9.82;;;3.80;;
51312;SDS011;37397;53.226;10.400;2022-12-07T16:29:35;6.95;;;3.55;;
51312;SDS011;37397;53.226;10.400;2022-12-07T16:32:01;9.82;;;4.35;;
51312;SDS011;37397;53.226;10.400;2022-12-07T16:34:28;15.10;;;4.28;;
51312;SDS011;37397;53.226;10.400;2022-12-07T16:36:54;13.13;;;4.22;;
51312;SDS011;37397;53.226;10.400;2022-12-07T16:39:30;10.68;;;4.95;;
51312;SDS011;37397;53.226;10.400;2022-12-07T16:41:57;11.70;;;5.47;;
51312;SDS011;37397;53.226;10.400;2022-12-07T16:44:24;13.55;;;6.57;;
51312;SDS011;37397;53.226;10.400;2022-12-07T16:46:51;18.10;;;8.90;;
51312;SDS011;37397;53.226;10.400;2022-12-07T16:49:17;33.75;;;15.13;;
51312;SDS011;37397;53.226;10.400;2022-12-07T16:51:45;28.52;;;14.10;;